Hauptseite
METAR-TAF:

METAR-TAF

Flughäfen :

Flughafen Taba

Taba, Ägypten

Breite: 29-35-57N, Länge: 034-46-36E, Höhe: 749 m

METAR: fehlend

Zeit: 16:58 (14:58 UTC)

Prognose

Neuester Wetterbericht von vor 3 Stunden und 58 Minuten, um 11:00 UTC
Gültige Prognose vom 23 um 12 UTC bis 24 um 18 UTC
Wind 8 kt aus Nordost
Sichtweite 10 km oder mehr
keine Wolken unter 1500 m und keine Kumulonimbus oder Gewitterwolken

TAF: HETB 231100Z 2312/2418 05008KT CAVOK

Wetterbeobachtungen und Prognosen von mehr als 4000 Flughäfen (METAR und TAF Bericht).

Die verfügbaren Stationen werden durch gelbe und rote Markierungen auf der Karte dargestellt.

Führen Sie die Maus auf sie, um den Namen der Station zu sehen.

Darauf klicken, um die Beobachtung von Wetterbeobachtungen und Prognosen zu sehen.

Um die Karte zu ändern : klicken Sie auf den grünen Tasten mit einem schwarzen Kreuz Zum Vergrößern, auf den grünen Button mit einem Gedankenstrich zu verkleinern, oder auf die grünen Pfeile für benachbarte Karten.


METAR-TAF: